GMTN  Saniat Rmel  Airport

Morocco

Add Bookmark
ICAO GMTN
IATA TTU
Type Airport
Status Operational
Latitude
35° 35' 39" N
35.594299
Longitude
5° 19' 12" W
-5.320020
Local (GMT +1 ) UTC
Aug 31, 2016 07:02 am Aug 31, 2016 06:02
Sunrise-Sunset Local UTC
Begin Civil Twilight 06:26 am 05:26
Sunrise 06:52 am 05:52
Sunset 07:50 pm 18:50
End Civil Twilight 08:16 pm 19:16
VFR
VFR
MVFR
MVFR
IFR
IFR
LIFR
LIFR
Unknown
Unavailable

Current Weather

METAR Observed IFR
GMTN 310500Z 21005KT 3000 BR NSC 20/16 Q1017 NOSIG Wed, Aug 31, 2016 @ 05:00 UTC
(1 Hour, 2 Minutes ago)
Instrument Flight Rules
Wind Visibility Conditions
210° at 5 knots (9 kph) 2,993 m
  • Mist
Temperatures Readings Precipitation
Current Temp
20°C
68°F
Dewpoint
16°C
61°F
Humidity 78%
Altimeter 30.03" Hg
Sea Level Pressure 1,017 mb
Field Elevation
10 m
33 ft
None Recorded

Additional weather within a 92.6km radius of GMTN

Map ICAO Location
GMTT 55.9km W/NW (285°)
LXGB 62km N (360°)
VFR
VFR
MVFR
MVFR
IFR
IFR
LIFR
LIFR
Unknown
Unavailable
-
-

CheckWX.com is intended as a tool to help pilots better visualize weather data. It is not intended as a substitute for an official weather briefing obtained from a Flight Service Station. CheckWX.com does not meet the FAA requirements for an official pre-flight weather briefing. Therefore, it's important that pilots still call and obtain an official FSS pre-flight weather briefing.

© 2007-2016 CheckWX.com
06:02:05 UTC